sensor_id;sensor_type;location;lat;lon;timestamp;pressure;altitude;pressure_sealevel;temperature;humidity
29839;BME280;18669;53.356;-1.464;2022-07-21T00:02:13;100957.28;;;21.07;100.00
29839;BME280;18669;53.356;-1.464;2022-07-21T00:04:39;100967.69;;;21.11;100.00
29839;BME280;18669;53.356;-1.464;2022-07-21T00:07:05;100969.34;;;21.14;100.00
29839;BME280;18669;53.356;-1.464;2022-07-21T00:09:31;100962.34;;;21.11;100.00
29839;BME280;18669;53.356;-1.464;2022-07-21T00:11:58;100968.28;;;21.16;100.00
29839;BME280;18669;53.356;-1.464;2022-07-21T00:14:24;100971.72;;;21.19;100.00
29839;BME280;18669;53.356;-1.464;2022-07-21T00:16:50;100972.78;;;21.16;100.00
29839;BME280;18669;53.356;-1.464;2022-07-21T00:19:16;100967.88;;;21.08;100.00
29839;BME280;18669;53.356;-1.464;2022-07-21T00:21:42;100968.81;;;21.07;100.00
29839;BME280;18669;53.356;-1.464;2022-07-21T00:24:08;100971.59;;;21.06;100.00
29839;BME280;18669;53.356;-1.464;2022-07-21T00:26:34;100970.16;;;21.00;100.00
29839;BME280;18669;53.356;-1.464;2022-07-21T00:29:01;100969.38;;;20.98;100.00
29839;BME280;18669;53.356;-1.464;2022-07-21T00:31:27;100971.94;;;20.99;100.00
29839;BME280;18669;53.356;-1.464;2022-07-21T00:33:54;100970.72;;;21.05;100.00
29839;BME280;18669;53.356;-1.464;2022-07-21T00:36:20;100966.13;;;21.07;100.00
29839;BME280;18669;53.356;-1.464;2022-07-21T00:38:48;100970.53;;;21.08;100.00
29839;BME280;18669;53.356;-1.464;2022-07-21T00:41:15;100966.91;;;21.09;100.00
29839;BME280;18669;53.356;-1.464;2022-07-21T00:43:41;100967.00;;;21.08;100.00
29839;BME280;18669;53.356;-1.464;2022-07-21T00:46:07;100975.13;;;21.06;100.00
29839;BME280;18669;53.356;-1.464;2022-07-21T00:48:34;100974.16;;;21.07;100.00
29839;BME280;18669;53.356;-1.464;2022-07-21T00:51:00;100972.72;;;21.01;100.00
29839;BME280;18669;53.356;-1.464;2022-07-21T00:53:26;100983.59;;;20.98;100.00
29839;BME280;18669;53.356;-1.464;2022-07-21T00:55:53;100985.78;;;20.92;100.00
29839;BME280;18669;53.356;-1.464;2022-07-21T00:58:19;100990.00;;;20.96;100.00
29839;BME280;18669;53.356;-1.464;2022-07-21T01:00:46;100983.00;;;20.93;100.00
29839;BME280;18669;53.356;-1.464;2022-07-21T01:03:13;100988.34;;;20.93;100.00
29839;BME280;18669;53.356;-1.464;2022-07-21T01:05:39;100991.91;;;20.94;100.00
29839;BME280;18669;53.356;-1.464;2022-07-21T01:08:06;100997.44;;;20.91;100.00
29839;BME280;18669;53.356;-1.464;2022-07-21T01:10:34;100991.13;;;20.92;100.00
29839;BME280;18669;53.356;-1.464;2022-07-21T01:13:01;100992.94;;;20.91;100.00
29839;BME280;18669;53.356;-1.464;2022-07-21T01:15:27;101004.75;;;20.87;100.00
29839;BME280;18669;53.356;-1.464;2022-07-21T01:17:54;101000.47;;;20.84;100.00
29839;BME280;18669;53.356;-1.464;2022-07-21T01:20:22;101003.44;;;20.94;100.00
29839;BME280;18669;53.356;-1.464;2022-07-21T01:22:52;100998.28;;;20.91;100.00
29839;BME280;18669;53.356;-1.464;2022-07-21T01:25:19;101002.00;;;20.89;100.00
29839;BME280;18669;53.356;-1.464;2022-07-21T01:27:46;101004.38;;;20.79;100.00
29839;BME280;18669;53.356;-1.464;2022-07-21T01:30:14;101004.38;;;20.79;100.00
29839;BME280;18669;53.356;-1.464;2022-07-21T01:32:41;101014.09;;;20.80;100.00
29839;BME280;18669;53.356;-1.464;2022-07-21T01:35:10;101013.47;;;20.91;100.00
29839;BME280;18669;53.356;-1.464;2022-07-21T01:37:39;101012.59;;;20.90;100.00
29839;BME280;18669;53.356;-1.464;2022-07-21T01:40:07;101015.91;;;20.79;100.00
29839;BME280;18669;53.356;-1.464;2022-07-21T01:42:51;101013.47;;;20.75;100.00
29839;BME280;18669;53.356;-1.464;2022-07-21T01:45:19;101021.34;;;20.78;100.00
29839;BME280;18669;53.356;-1.464;2022-07-21T01:47:45;101016.78;;;20.80;100.00
29839;BME280;18669;53.356;-1.464;2022-07-21T01:50:11;101022.13;;;20.80;100.00
29839;BME280;18669;53.356;-1.464;2022-07-21T01:52:37;101016.50;;;20.68;100.00
29839;BME280;18669;53.356;-1.464;2022-07-21T01:55:04;101020.63;;;20.58;100.00
29839;BME280;18669;53.356;-1.464;2022-07-21T01:57:30;101009.44;;;20.51;100.00
29839;BME280;18669;53.356;-1.464;2022-07-21T01:59:56;101015.72;;;20.50;100.00
29839;BME280;18669;53.356;-1.464;2022-07-21T02:02:22;101019.19;;;20.52;100.00
29839;BME280;18669;53.356;-1.464;2022-07-21T02:04:49;101014.78;;;20.51;100.00
29839;BME280;18669;53.356;-1.464;2022-07-21T02:07:16;101020.19;;;20.50;100.00
29839;BME280;18669;53.356;-1.464;2022-07-21T02:09:42;101019.06;;;20.54;100.00
29839;BME280;18669;53.356;-1.464;2022-07-21T02:12:10;101024.88;;;20.46;100.00
29839;BME280;18669;53.356;-1.464;2022-07-21T02:14:36;101024.03;;;20.46;100.00
29839;BME280;18669;53.356;-1.464;2022-07-21T02:17:02;101034.44;;;20.50;100.00
29839;BME280;18669;53.356;-1.464;2022-07-21T02:19:28;101031.66;;;20.52;100.00
29839;BME280;18669;53.356;-1.464;2022-07-21T02:21:54;101032.03;;;20.46;100.00
29839;BME280;18669;53.356;-1.464;2022-07-21T02:24:20;101026.06;;;20.40;100.00
29839;BME280;18669;53.356;-1.464;2022-07-21T02:26:46;101031.66;;;20.36;100.00
29839;BME280;18669;53.356;-1.464;2022-07-21T02:29:12;101034.25;;;20.37;100.00
29839;BME280;18669;53.356;-1.464;2022-07-21T02:31:38;101037.94;;;20.35;100.00
29839;BME280;18669;53.356;-1.464;2022-07-21T02:34:04;101031.66;;;20.36;100.00
29839;BME280;18669;53.356;-1.464;2022-07-21T02:36:33;101031.75;;;20.34;100.00
29839;BME280;18669;53.356;-1.464;2022-07-21T02:39:00;101033.66;;;20.32;100.00
29839;BME280;18669;53.356;-1.464;2022-07-21T02:41:26;101036.41;;;20.31;100.00
29839;BME280;18669;53.356;-1.464;2022-07-21T02:43:52;101025.19;;;20.24;100.00
29839;BME280;18669;53.356;-1.464;2022-07-21T02:46:18;101035.19;;;20.20;100.00
29839;BME280;18669;53.356;-1.464;2022-07-21T02:48:44;101029.69;;;20.23;100.00
29839;BME280;18669;53.356;-1.464;2022-07-21T02:51:10;101029.41;;;20.28;100.00
29839;BME280;18669;53.356;-1.464;2022-07-21T02:53:36;101032.88;;;20.30;100.00
29839;BME280;18669;53.356;-1.464;2022-07-21T02:56:02;101033.75;;;20.31;100.00
29839;BME280;18669;53.356;-1.464;2022-07-21T02:58:29;101033.22;;;20.40;100.00
29839;BME280;18669;53.356;-1.464;2022-07-21T03:00:56;101033.66;;;20.32;100.00
29839;BME280;18669;53.356;-1.464;2022-07-21T03:03:25;101027.97;;;20.38;100.00
29839;BME280;18669;53.356;-1.464;2022-07-21T03:05:51;101031.41;;;20.24;100.00
29839;BME280;18669;53.356;-1.464;2022-07-21T03:08:19;101024.97;;;20.29;100.00
29839;BME280;18669;53.356;-1.464;2022-07-21T03:10:45;101031.13;;;20.13;100.00
29839;BME280;18669;53.356;-1.464;2022-07-21T03:13:12;101026.72;;;20.12;100.00
29839;BME280;18669;53.356;-1.464;2022-07-21T03:15:39;101023.00;;;20.15;100.00
29839;BME280;18669;53.356;-1.464;2022-07-21T03:18:05;101020.72;;;20.08;100.00
29839;BME280;18669;53.356;-1.464;2022-07-21T03:20:35;101021.91;;;20.19;100.00
29839;BME280;18669;53.356;-1.464;2022-07-21T03:23:01;101018.97;;;20.07;100.00
29839;BME280;18669;53.356;-1.464;2022-07-21T03:25:28;101012.69;;;20.08;100.00
29839;BME280;18669;53.356;-1.464;2022-07-21T03:27:54;101017.78;;;20.13;100.00
29839;BME280;18669;53.356;-1.464;2022-07-21T03:30:21;101022.00;;;20.17;100.00
29839;BME280;18669;53.356;-1.464;2022-07-21T03:32:48;101017.00;;;20.11;100.00
29839;BME280;18669;53.356;-1.464;2022-07-21T03:35:15;101028.72;;;20.08;100.00
29839;BME280;18669;53.356;-1.464;2022-07-21T03:37:45;101025.28;;;20.06;100.00
29839;BME280;18669;53.356;-1.464;2022-07-21T03:40:14;101031.91;;;20.15;100.00
29839;BME280;18669;53.356;-1.464;2022-07-21T03:42:41;101024.06;;;20.12;100.00
29839;BME280;18669;53.356;-1.464;2022-07-21T03:45:08;101034.41;;;20.18;100.00
29839;BME280;18669;53.356;-1.464;2022-07-21T03:47:35;101031.38;;;20.08;100.00
29839;BME280;18669;53.356;-1.464;2022-07-21T03:50:03;101032.06;;;20.12;100.00
29839;BME280;18669;53.356;-1.464;2022-07-21T03:52:30;101043.34;;;20.01;100.00
29839;BME280;18669;53.356;-1.464;2022-07-21T03:54:56;101042.56;;;19.99;100.00
29839;BME280;18669;53.356;-1.464;2022-07-21T03:57:44;101047.31;;;20.10;100.00
29839;BME280;18669;53.356;-1.464;2022-07-21T04:00:19;101052.31;;;20.00;100.00
29839;BME280;18669;53.356;-1.464;2022-07-21T04:02:49;101054.00;;;19.83;100.00
29839;BME280;18669;53.356;-1.464;2022-07-21T04:05:22;101051.28;;;19.85;100.00
29839;BME280;18669;53.356;-1.464;2022-07-21T04:07:59;101054.59;;;19.73;100.00
29839;BME280;18669;53.356;-1.464;2022-07-21T04:10:29;101054.44;;;19.76;100.00
29839;BME280;18669;53.356;-1.464;2022-07-21T04:12:57;101055.38;;;19.75;100.00
29839;BME280;18669;53.356;-1.464;2022-07-21T04:15:24;101059.28;;;19.67;100.00
29839;BME280;18669;53.356;-1.464;2022-07-21T04:17:50;101061.19;;;19.65;100.00
29839;BME280;18669;53.356;-1.464;2022-07-21T04:20:18;101055.94;;;19.64;100.00
29839;BME280;18669;53.356;-1.464;2022-07-21T04:22:46;101064.19;;;19.59;100.00
29839;BME280;18669;53.356;-1.464;2022-07-21T04:25:14;101064.34;;;19.56;100.00
29839;BME280;18669;53.356;-1.464;2022-07-21T04:27:40;101064.34;;;19.56;100.00
29839;BME280;18669;53.356;-1.464;2022-07-21T04:30:08;101071.78;;;19.67;100.00
29839;BME280;18669;53.356;-1.464;2022-07-21T04:32:35;101074.78;;;19.61;100.00
29839;BME280;18669;53.356;-1.464;2022-07-21T04:35:03;101080.22;;;19.59;100.00
29839;BME280;18669;53.356;-1.464;2022-07-21T04:37:29;101093.28;;;19.46;100.00
29839;BME280;18669;53.356;-1.464;2022-07-21T04:39:55;101092.34;;;19.47;100.00
29839;BME280;18669;53.356;-1.464;2022-07-21T04:42:21;101095.97;;;19.46;100.00
29839;BME280;18669;53.356;-1.464;2022-07-21T04:44:47;101091.56;;;19.45;100.00
29839;BME280;18669;53.356;-1.464;2022-07-21T04:47:14;101095.25;;;19.43;100.00
29839;BME280;18669;53.356;-1.464;2022-07-21T04:49:40;101101.22;;;19.48;100.00
29839;BME280;18669;53.356;-1.464;2022-07-21T04:52:06;101100.44;;;19.46;100.00
29839;BME280;18669;53.356;-1.464;2022-07-21T04:54:32;101101.44;;;19.43;100.00
29839;BME280;18669;53.356;-1.464;2022-07-21T04:56:59;101099.97;;;19.37;100.00
29839;BME280;18669;53.356;-1.464;2022-07-21T04:59:29;101104.44;;;19.37;100.00
29839;BME280;18669;53.356;-1.464;2022-07-21T05:01:56;101102.28;;;19.26;100.00
29839;BME280;18669;53.356;-1.464;2022-07-21T05:04:22;101112.41;;;19.19;100.00
29839;BME280;18669;53.356;-1.464;2022-07-21T05:06:49;101101.59;;;19.22;100.00
29839;BME280;18669;53.356;-1.464;2022-07-21T05:09:15;101094.81;;;19.15;100.00
29839;BME280;18669;53.356;-1.464;2022-07-21T05:11:41;101104.41;;;19.19;100.00
29839;BME280;18669;53.356;-1.464;2022-07-21T05:14:07;101107.47;;;19.29;100.00
29839;BME280;18669;53.356;-1.464;2022-07-21T05:16:33;101115.88;;;19.21;100.00
29839;BME280;18669;53.356;-1.464;2022-07-21T05:18:59;101111.06;;;19.11;100.00
29839;BME280;18669;53.356;-1.464;2022-07-21T05:21:25;101121.47;;;18.98;100.00
29839;BME280;18669;53.356;-1.464;2022-07-21T05:23:52;101123.47;;;18.92;100.00
29839;BME280;18669;53.356;-1.464;2022-07-21T05:26:18;101122.28;;;18.79;100.00
29839;BME280;18669;53.356;-1.464;2022-07-21T05:28:44;101126.63;;;18.82;100.00
29839;BME280;18669;53.356;-1.464;2022-07-21T05:31:10;101129.16;;;18.85;100.00
29839;BME280;18669;53.356;-1.464;2022-07-21T05:33:36;101132.03;;;18.80;100.00
29839;BME280;18669;53.356;-1.464;2022-07-21T05:36:04;101129.56;;;18.94;100.00
29839;BME280;18669;53.356;-1.464;2022-07-21T05:38:32;101129.72;;;18.91;100.00
29839;BME280;18669;53.356;-1.464;2022-07-21T05:40:58;101139.44;;;18.92;100.00
29839;BME280;18669;53.356;-1.464;2022-07-21T05:43:30;101139.19;;;18.99;100.00
29839;BME280;18669;53.356;-1.464;2022-07-21T05:45:57;101144.06;;;18.89;100.00
29839;BME280;18669;53.356;-1.464;2022-07-21T05:48:23;101144.50;;;18.79;100.00
29839;BME280;18669;53.356;-1.464;2022-07-21T05:50:49;101146.94;;;18.84;100.00
29839;BME280;18669;53.356;-1.464;2022-07-21T05:53:15;101142.50;;;18.85;100.00
29839;BME280;18669;53.356;-1.464;2022-07-21T05:55:41;101143.34;;;18.85;100.00
29839;BME280;18669;53.356;-1.464;2022-07-21T05:58:07;101153.06;;;18.86;100.00
29839;BME280;18669;53.356;-1.464;2022-07-21T06:00:34;101147.50;;;18.91;100.00
29839;BME280;18669;53.356;-1.464;2022-07-21T06:03:00;101159.19;;;18.88;100.00
29839;BME280;18669;53.356;-1.464;2022-07-21T06:05:26;101163.22;;;18.78;100.00
29839;BME280;18669;53.356;-1.464;2022-07-21T06:07:52;101165.22;;;18.73;100.00
29839;BME280;18669;53.356;-1.464;2022-07-21T06:10:18;101166.16;;;18.53;100.00
29839;BME280;18669;53.356;-1.464;2022-07-21T06:12:44;101168.63;;;18.37;100.00
29839;BME280;18669;53.356;-1.464;2022-07-21T06:15:12;101172.25;;;18.36;100.00
29839;BME280;18669;53.356;-1.464;2022-07-21T06:17:40;101171.59;;;18.30;100.00
29839;BME280;18669;53.356;-1.464;2022-07-21T06:20:08;101179.38;;;18.35;100.00
29839;BME280;18669;53.356;-1.464;2022-07-21T06:22:35;101175.50;;;18.22;100.00
29839;BME280;18669;53.356;-1.464;2022-07-21T06:25:02;101174.22;;;18.11;100.00
29839;BME280;18669;53.356;-1.464;2022-07-21T06:27:29;101180.59;;;18.07;100.00
29839;BME280;18669;53.356;-1.464;2022-07-21T06:29:55;101179.66;;;18.08;100.00
29839;BME280;18669;53.356;-1.464;2022-07-21T06:32:24;101177.19;;;18.03;100.00
29839;BME280;18669;53.356;-1.464;2022-07-21T06:34:50;101184.31;;;18.03;100.00
29839;BME280;18669;53.356;-1.464;2022-07-21T06:37:17;101184.44;;;18.00;100.00
29839;BME280;18669;53.356;-1.464;2022-07-21T06:39:43;101188.09;;;17.97;100.00
29839;BME280;18669;53.356;-1.464;2022-07-21T06:42:09;101197.31;;;17.88;100.00
29839;BME280;18669;53.356;-1.464;2022-07-21T06:44:36;101193.25;;;17.80;100.00
29839;BME280;18669;53.356;-1.464;2022-07-21T06:47:02;101201.19;;;17.81;100.00
29839;BME280;18669;53.356;-1.464;2022-07-21T06:49:31;101201.91;;;17.85;100.00
29839;BME280;18669;53.356;-1.464;2022-07-21T06:51:58;101212.22;;;17.93;100.00
29839;BME280;18669;53.356;-1.464;2022-07-21T06:54:25;101216.00;;;17.87;100.00
29839;BME280;18669;53.356;-1.464;2022-07-21T06:56:51;101220.03;;;17.97;100.00
29839;BME280;18669;53.356;-1.464;2022-07-21T06:59:17;101225.41;;;17.96;100.00
29839;BME280;18669;53.356;-1.464;2022-07-21T07:01:43;101222.16;;;17.89;100.00
29839;BME280;18669;53.356;-1.464;2022-07-21T07:04:09;101226.19;;;17.77;100.00
29839;BME280;18669;53.356;-1.464;2022-07-21T07:06:35;101222.03;;;17.70;100.00
29839;BME280;18669;53.356;-1.464;2022-07-21T07:09:02;101228.53;;;17.63;100.00
29839;BME280;18669;53.356;-1.464;2022-07-21T07:11:28;101234.78;;;17.62;100.00
29839;BME280;18669;53.356;-1.464;2022-07-21T07:13:55;101234.66;;;17.65;100.00
29839;BME280;18669;53.356;-1.464;2022-07-21T07:16:21;101232.06;;;17.63;100.00
29839;BME280;18669;53.356;-1.464;2022-07-21T07:18:47;101232.00;;;17.65;100.00
29839;BME280;18669;53.356;-1.464;2022-07-21T07:21:13;101237.88;;;17.73;100.00
29839;BME280;18669;53.356;-1.464;2022-07-21T07:23:39;101237.56;;;17.81;100.00
29839;BME280;18669;53.356;-1.464;2022-07-21T07:26:06;101245.28;;;17.87;100.00
29839;BME280;18669;53.356;-1.464;2022-07-21T07:28:32;101236.00;;;17.97;100.00
29839;BME280;18669;53.356;-1.464;2022-07-21T07:30:58;101231.19;;;18.07;100.00
29839;BME280;18669;53.356;-1.464;2022-07-21T07:33:24;101235.50;;;18.10;100.00
29839;BME280;18669;53.356;-1.464;2022-07-21T07:35:52;101236.72;;;18.23;100.00
29839;BME280;18669;53.356;-1.464;2022-07-21T07:38:18;101232.91;;;18.29;100.00
29839;BME280;18669;53.356;-1.464;2022-07-21T07:40:44;101229.41;;;18.28;100.00
29839;BME280;18669;53.356;-1.464;2022-07-21T07:43:10;101230.19;;;18.30;100.00
29839;BME280;18669;53.356;-1.464;2022-07-21T07:45:37;101219.19;;;18.38;100.00
29839;BME280;18669;53.356;-1.464;2022-07-21T07:48:05;101228.69;;;18.64;100.00
29839;BME280;18669;53.356;-1.464;2022-07-21T07:50:32;101223.44;;;18.63;100.00
29839;BME280;18669;53.356;-1.464;2022-07-21T07:52:58;101222.94;;;18.74;100.00
29839;BME280;18669;53.356;-1.464;2022-07-21T07:55:24;101224.59;;;18.76;100.00
29839;BME280;18669;53.356;-1.464;2022-07-21T07:57:50;101228.78;;;18.82;100.00
29839;BME280;18669;53.356;-1.464;2022-07-21T08:00:18;101236.03;;;18.99;100.00
29839;BME280;18669;53.356;-1.464;2022-07-21T08:02:45;101232.38;;;19.02;100.00
29839;BME280;18669;53.356;-1.464;2022-07-21T08:05:12;101235.19;;;19.18;100.00
29839;BME280;18669;53.356;-1.464;2022-07-21T08:07:39;101235.38;;;19.32;100.00
29839;BME280;18669;53.356;-1.464;2022-07-21T08:10:07;101242.28;;;19.56;100.00
29839;BME280;18669;53.356;-1.464;2022-07-21T08:12:35;101238.03;;;19.51;100.00
29839;BME280;18669;53.356;-1.464;2022-07-21T08:15:01;101240.13;;;19.45;100.00
29839;BME280;18669;53.356;-1.464;2022-07-21T08:17:28;101236.41;;;19.30;100.00
29839;BME280;18669;53.356;-1.464;2022-07-21T08:19:54;101239.72;;;19.35;100.00
29839;BME280;18669;53.356;-1.464;2022-07-21T08:22:20;101244.13;;;19.36;100.00
29839;BME280;18669;53.356;-1.464;2022-07-21T08:24:46;101242.44;;;19.33;100.00
29839;BME280;18669;53.356;-1.464;2022-07-21T08:27:12;101239.28;;;19.25;100.00
29839;BME280;18669;53.356;-1.464;2022-07-21T08:29:38;101236.56;;;19.27;100.00
29839;BME280;18669;53.356;-1.464;2022-07-21T08:32:05;101249.31;;;19.20;100.00
29839;BME280;18669;53.356;-1.464;2022-07-21T08:34:31;101247.78;;;19.14;100.00
29839;BME280;18669;53.356;-1.464;2022-07-21T08:36:57;101252.03;;;19.18;100.00
29839;BME280;18669;53.356;-1.464;2022-07-21T08:39:24;101255.28;;;19.25;100.00
29839;BME280;18669;53.356;-1.464;2022-07-21T08:41:51;101249.00;;;19.26;100.00
29839;BME280;18669;53.356;-1.464;2022-07-21T08:44:20;101249.31;;;19.39;100.00
29839;BME280;18669;53.356;-1.464;2022-07-21T08:46:49;101252.16;;;19.53;100.00
29839;BME280;18669;53.356;-1.464;2022-07-21T08:49:19;101258.06;;;19.60;100.00
29839;BME280;18669;53.356;-1.464;2022-07-21T08:51:49;101260.25;;;19.52;100.00
29839;BME280;18669;53.356;-1.464;2022-07-21T08:54:15;101257.88;;;19.46;100.00
29839;BME280;18669;53.356;-1.464;2022-07-21T08:56:41;101261.91;;;19.55;100.00
29839;BME280;18669;53.356;-1.464;2022-07-21T08:59:07;101264.97;;;19.64;100.00
29839;BME280;18669;53.356;-1.464;2022-07-21T09:01:33;101266.28;;;19.75;100.00
29839;BME280;18669;53.356;-1.464;2022-07-21T09:09:21;101269.34;;;19.85;100.00
29839;BME280;18669;53.356;-1.464;2022-07-21T09:11:49;101272.41;;;19.77;100.00
29839;BME280;18669;53.356;-1.464;2022-07-21T09:14:18;101274.84;;;19.81;100.00
29839;BME280;18669;53.356;-1.464;2022-07-21T09:16:46;101263.44;;;19.78;100.00
29839;BME280;18669;53.356;-1.464;2022-07-21T09:19:22;101270.03;;;19.90;100.00
29839;BME280;18669;53.356;-1.464;2022-07-21T09:21:51;101267.06;;;19.96;100.00
29839;BME280;18669;53.356;-1.464;2022-07-21T09:32:21;101271.22;;;20.19;100.00
29839;BME280;18669;53.356;-1.464;2022-07-21T09:34:51;101277.59;;;20.34;100.00
29839;BME280;18669;53.356;-1.464;2022-07-21T09:37:19;101278.06;;;20.25;100.00
29839;BME280;18669;53.356;-1.464;2022-07-21T09:44:43;101276.63;;;20.53;100.00
29839;BME280;18669;53.356;-1.464;2022-07-21T09:47:12;101287.16;;;20.56;100.00
29839;BME280;18669;53.356;-1.464;2022-07-21T09:49:39;101280.03;;;20.56;100.00
29839;BME280;18669;53.356;-1.464;2022-07-21T09:54:44;101284.47;;;20.56;100.00
29839;BME280;18669;53.356;-1.464;2022-07-21T09:57:11;101289.63;;;20.61;100.00
29839;BME280;18669;53.356;-1.464;2022-07-21T09:59:38;101286.31;;;20.55;100.00
29839;BME280;18669;53.356;-1.464;2022-07-21T10:02:05;101281.75;;;20.40;100.00
29839;BME280;18669;53.356;-1.464;2022-07-21T10:04:32;101290.41;;;20.27;100.00
29839;BME280;18669;53.356;-1.464;2022-07-21T10:07:01;101283.88;;;20.33;100.00
29839;BME280;18669;53.356;-1.464;2022-07-21T10:09:27;101291.03;;;20.33;100.00
29839;BME280;18669;53.356;-1.464;2022-07-21T10:11:53;101296.38;;;20.33;100.00
29839;BME280;18669;53.356;-1.464;2022-07-21T10:14:19;101286.00;;;20.26;100.00
29839;BME280;18669;53.356;-1.464;2022-07-21T10:16:46;101297.88;;;20.38;100.00
29839;BME280;18669;53.356;-1.464;2022-07-21T10:22:29;101293.59;;;20.69;100.00
29839;BME280;18669;53.356;-1.464;2022-07-21T10:24:57;101286.94;;;20.61;100.00
29839;BME280;18669;53.356;-1.464;2022-07-21T10:27:25;101295.97;;;20.58;100.00
29839;BME280;18669;53.356;-1.464;2022-07-21T10:32:39;101283.59;;;20.91;100.00
29839;BME280;18669;53.356;-1.464;2022-07-21T10:35:29;101293.19;;;20.95;100.00
29839;BME280;18669;53.356;-1.464;2022-07-21T10:37:57;101300.91;;;20.83;100.00
29839;BME280;18669;53.356;-1.464;2022-07-21T10:45:36;101300.81;;;20.85;100.00
29839;BME280;18669;53.356;-1.464;2022-07-21T10:48:05;101299.91;;;20.68;100.00
29839;BME280;18669;53.356;-1.464;2022-07-21T10:50:33;101292.44;;;20.57;100.00
29839;BME280;18669;53.356;-1.464;2022-07-21T10:53:03;101296.22;;;20.53;100.00
29839;BME280;18669;53.356;-1.464;2022-07-21T10:55:36;101295.59;;;20.66;100.00
29839;BME280;18669;53.356;-1.464;2022-07-21T10:58:27;101301.03;;;20.82;100.00
29839;BME280;18669;53.356;-1.464;2022-07-21T11:01:06;101298.69;;;20.74;100.00
29839;BME280;18669;53.356;-1.464;2022-07-21T11:03:34;101303.34;;;20.70;100.00
29839;BME280;18669;53.356;-1.464;2022-07-21T11:08:46;101295.41;;;20.69;100.00
29839;BME280;18669;53.356;-1.464;2022-07-21T11:14:08;101301.38;;;20.92;100.00
29839;BME280;18669;53.356;-1.464;2022-07-21T11:24:45;101299.22;;;20.98;100.00
29839;BME280;18669;53.356;-1.464;2022-07-21T11:27:14;101306.00;;;20.88;100.00
29839;BME280;18669;53.356;-1.464;2022-07-21T11:29:43;101310.84;;;20.81;100.00
29839;BME280;18669;53.356;-1.464;2022-07-21T11:32:11;101311.28;;;20.72;100.00
29839;BME280;18669;53.356;-1.464;2022-07-21T11:34:46;101301.31;;;20.76;100.00
29839;BME280;18669;53.356;-1.464;2022-07-21T11:37:18;101311.09;;;20.77;100.00
29839;BME280;18669;53.356;-1.464;2022-07-21T11:39:45;101308.16;;;20.64;100.00
29839;BME280;18669;53.356;-1.464;2022-07-21T11:42:13;101312.31;;;20.69;100.00
29839;BME280;18669;53.356;-1.464;2022-07-21T11:44:41;101311.63;;;20.66;100.00
29839;BME280;18669;53.356;-1.464;2022-07-21T11:47:10;101308.97;;;20.66;100.00
29839;BME280;18669;53.356;-1.464;2022-07-21T11:49:37;101313.84;;;20.57;100.00
29839;BME280;18669;53.356;-1.464;2022-07-21T11:52:11;101312.72;;;20.62;100.00
29839;BME280;18669;53.356;-1.464;2022-07-21T11:54:39;101307.59;;;20.57;100.00
29839;BME280;18669;53.356;-1.464;2022-07-21T11:57:08;101314.53;;;20.61;100.00
29839;BME280;18669;53.356;-1.464;2022-07-21T11:59:36;101312.63;;;20.63;100.00
29839;BME280;18669;53.356;-1.464;2022-07-21T12:02:06;101306.59;;;20.60;100.00
29839;BME280;18669;53.356;-1.464;2022-07-21T12:09:43;101313.56;;;20.62;100.00
29839;BME280;18669;53.356;-1.464;2022-07-21T12:12:11;101308.22;;;20.62;100.00
29839;BME280;18669;53.356;-1.464;2022-07-21T12:17:07;101313.59;;;20.80;100.00
29839;BME280;18669;53.356;-1.464;2022-07-21T12:19:33;101307.69;;;20.91;100.00
29839;BME280;18669;53.356;-1.464;2022-07-21T12:21:59;101306.94;;;21.05;100.00
29839;BME280;18669;53.356;-1.464;2022-07-21T12:24:55;101304.03;;;21.25;100.00
29839;BME280;18669;53.356;-1.464;2022-07-21T12:27:23;101311.25;;;21.23;100.00
29839;BME280;18669;53.356;-1.464;2022-07-21T12:29:51;101303.94;;;21.27;100.00
29839;BME280;18669;53.356;-1.464;2022-07-21T12:32:43;101309.38;;;21.41;100.00
29839;BME280;18669;53.356;-1.464;2022-07-21T12:35:22;101312.00;;;21.59;100.00
29839;BME280;18669;53.356;-1.464;2022-07-21T12:37:55;101310.44;;;21.39;100.00
29839;BME280;18669;53.356;-1.464;2022-07-21T12:40:22;101315.66;;;21.24;100.00
29839;BME280;18669;53.356;-1.464;2022-07-21T12:42:49;101312.81;;;21.11;100.00
29839;BME280;18669;53.356;-1.464;2022-07-21T12:45:20;101311.38;;;21.22;100.00
29839;BME280;18669;53.356;-1.464;2022-07-21T12:48:08;101311.72;;;21.31;100.00
29839;BME280;18669;53.356;-1.464;2022-07-21T12:50:35;101315.00;;;21.21;100.00
29839;BME280;18669;53.356;-1.464;2022-07-21T12:53:11;101306.19;;;21.35;100.00
29839;BME280;18669;53.356;-1.464;2022-07-21T12:55:38;101308.00;;;21.18;100.00
29839;BME280;18669;53.356;-1.464;2022-07-21T12:58:05;101313.63;;;21.29;100.00
29839;BME280;18669;53.356;-1.464;2022-07-21T13:00:31;101310.25;;;21.26;100.00
29839;BME280;18669;53.356;-1.464;2022-07-21T13:02:57;101309.63;;;21.21;100.00
29839;BME280;18669;53.356;-1.464;2022-07-21T13:05:25;101308.41;;;21.10;100.00
29839;BME280;18669;53.356;-1.464;2022-07-21T13:07:52;101308.72;;;21.04;100.00
29839;BME280;18669;53.356;-1.464;2022-07-21T13:10:18;101308.81;;;21.02;100.00
29839;BME280;18669;53.356;-1.464;2022-07-21T13:12:44;101321.31;;;21.02;100.00
29839;BME280;18669;53.356;-1.464;2022-07-21T13:15:11;101323.41;;;20.97;100.00
29839;BME280;18669;53.356;-1.464;2022-07-21T13:17:37;101326.78;;;21.00;100.00
29839;BME280;18669;53.356;-1.464;2022-07-21T13:20:03;101326.78;;;21.00;100.00
29839;BME280;18669;53.356;-1.464;2022-07-21T13:22:30;101320.31;;;21.05;100.00
29839;BME280;18669;53.356;-1.464;2022-07-21T13:24:56;101323.44;;;21.13;100.00
29839;BME280;18669;53.356;-1.464;2022-07-21T13:27:22;101321.97;;;21.23;100.00